sensor_id;sensor_type;location;lat;lon;timestamp;temperature;humidity
23591;DHT22;11973;52.098;7.582;2022-12-04T00:00:54;1.20;99.20
23591;DHT22;11973;52.098;7.582;2022-12-04T00:03:20;1.20;99.20
23591;DHT22;11973;52.098;7.582;2022-12-04T00:05:46;1.20;99.20
23591;DHT22;11973;52.098;7.582;2022-12-04T00:08:11;1.20;99.20
23591;DHT22;11973;52.098;7.582;2022-12-04T00:10:41;1.20;99.20
23591;DHT22;11973;52.098;7.582;2022-12-04T00:13:08;1.20;99.20
23591;DHT22;11973;52.098;7.582;2022-12-04T00:15:33;1.20;99.20
23591;DHT22;11973;52.098;7.582;2022-12-04T00:17:59;1.40;99.60
23591;DHT22;11973;52.098;7.582;2022-12-04T00:20:25;1.20;99.20
23591;DHT22;11973;52.098;7.582;2022-12-04T00:22:51;1.20;99.20
23591;DHT22;11973;52.098;7.582;2022-12-04T00:25:17;1.20;99.20
23591;DHT22;11973;52.098;7.582;2022-12-04T00:27:43;1.20;99.20
23591;DHT22;11973;52.098;7.582;2022-12-04T00:30:09;1.20;99.20
23591;DHT22;11973;52.098;7.582;2022-12-04T00:32:35;1.20;99.20
23591;DHT22;11973;52.098;7.582;2022-12-04T00:35:00;1.20;99.20
23591;DHT22;11973;52.098;7.582;2022-12-04T00:37:26;1.20;99.20
23591;DHT22;11973;52.098;7.582;2022-12-04T00:39:52;1.20;99.30
23591;DHT22;11973;52.098;7.582;2022-12-04T00:42:18;1.20;99.20
23591;DHT22;11973;52.098;7.582;2022-12-04T00:44:44;1.20;99.30
23591;DHT22;11973;52.098;7.582;2022-12-04T00:47:09;1.20;99.30
23591;DHT22;11973;52.098;7.582;2022-12-04T00:49:35;1.20;99.30
23591;DHT22;11973;52.098;7.582;2022-12-04T00:52:01;1.20;99.30
23591;DHT22;11973;52.098;7.582;2022-12-04T00:54:26;1.20;99.30
23591;DHT22;11973;52.098;7.582;2022-12-04T00:56:52;1.20;99.30
23591;DHT22;11973;52.098;7.582;2022-12-04T00:59:17;1.20;99.30
23591;DHT22;11973;52.098;7.582;2022-12-04T01:01:43;1.20;99.30
23591;DHT22;11973;52.098;7.582;2022-12-04T01:04:09;1.20;99.30
23591;DHT22;11973;52.098;7.582;2022-12-04T01:06:34;1.20;99.30
23591;DHT22;11973;52.098;7.582;2022-12-04T01:09:03;1.20;99.30
23591;DHT22;11973;52.098;7.582;2022-12-04T01:11:29;1.20;99.30
23591;DHT22;11973;52.098;7.582;2022-12-04T01:13:56;1.20;99.30
23591;DHT22;11973;52.098;7.582;2022-12-04T01:16:26;1.20;99.30
23591;DHT22;11973;52.098;7.582;2022-12-04T01:18:52;1.20;99.30
23591;DHT22;11973;52.098;7.582;2022-12-04T01:21:18;1.20;99.30
23591;DHT22;11973;52.098;7.582;2022-12-04T01:23:44;1.20;99.30
23591;DHT22;11973;52.098;7.582;2022-12-04T01:26:10;1.20;99.30
23591;DHT22;11973;52.098;7.582;2022-12-04T01:28:36;1.20;99.30
23591;DHT22;11973;52.098;7.582;2022-12-04T01:33:31;1.20;99.30
23591;DHT22;11973;52.098;7.582;2022-12-04T01:35:59;1.20;99.30
23591;DHT22;11973;52.098;7.582;2022-12-04T01:38:26;1.20;99.30
23591;DHT22;11973;52.098;7.582;2022-12-04T01:40:53;1.20;99.30
23591;DHT22;11973;52.098;7.582;2022-12-04T01:43:20;1.20;99.30
23591;DHT22;11973;52.098;7.582;2022-12-04T01:45:47;1.20;99.30
23591;DHT22;11973;52.098;7.582;2022-12-04T01:48:30;1.20;99.30
23591;DHT22;11973;52.098;7.582;2022-12-04T01:51:07;1.20;99.30
23591;DHT22;11973;52.098;7.582;2022-12-04T01:53:37;1.20;99.30
23591;DHT22;11973;52.098;7.582;2022-12-04T01:56:04;1.20;99.30
23591;DHT22;11973;52.098;7.582;2022-12-04T01:58:34;1.20;99.30
23591;DHT22;11973;52.098;7.582;2022-12-04T02:01:03;1.20;99.30
23591;DHT22;11973;52.098;7.582;2022-12-04T02:03:31;1.20;99.30
23591;DHT22;11973;52.098;7.582;2022-12-04T02:05:56;1.20;99.30
23591;DHT22;11973;52.098;7.582;2022-12-04T02:08:22;1.20;99.30
23591;DHT22;11973;52.098;7.582;2022-12-04T02:14:06;1.20;99.40
23591;DHT22;11973;52.098;7.582;2022-12-04T02:16:56;1.20;99.40
23591;DHT22;11973;52.098;7.582;2022-12-04T02:22:41;1.20;99.40
23591;DHT22;11973;52.098;7.582;2022-12-04T02:28:46;1.20;99.40
23591;DHT22;11973;52.098;7.582;2022-12-04T02:30:47;1.20;99.40
23591;DHT22;11973;52.098;7.582;2022-12-04T02:33:22;1.20;99.40
23591;DHT22;11973;52.098;7.582;2022-12-04T02:36:02;1.20;99.40
23591;DHT22;11973;52.098;7.582;2022-12-04T02:38:42;1.20;99.40
23591;DHT22;11973;52.098;7.582;2022-12-04T02:41:13;1.20;99.40
23591;DHT22;11973;52.098;7.582;2022-12-04T02:43:59;1.20;99.40
23591;DHT22;11973;52.098;7.582;2022-12-04T02:46:31;1.20;99.40
23591;DHT22;11973;52.098;7.582;2022-12-04T02:49:00;1.20;99.40
23591;DHT22;11973;52.098;7.582;2022-12-04T02:51:31;1.20;99.50
23591;DHT22;11973;52.098;7.582;2022-12-04T02:54:03;1.20;99.40
23591;DHT22;11973;52.098;7.582;2022-12-04T02:56:33;1.20;99.50
23591;DHT22;11973;52.098;7.582;2022-12-04T02:59:05;1.20;99.50
23591;DHT22;11973;52.098;7.582;2022-12-04T03:01:39;1.20;99.50
23591;DHT22;11973;52.098;7.582;2022-12-04T03:04:25;1.20;99.50
23591;DHT22;11973;52.098;7.582;2022-12-04T03:06:56;1.20;99.50
23591;DHT22;11973;52.098;7.582;2022-12-04T03:09:27;1.20;99.50
23591;DHT22;11973;52.098;7.582;2022-12-04T03:12:04;1.20;99.50
23591;DHT22;11973;52.098;7.582;2022-12-04T03:14:34;1.20;99.50
23591;DHT22;11973;52.098;7.582;2022-12-04T03:17:15;1.20;99.50
23591;DHT22;11973;52.098;7.582;2022-12-04T03:19:50;1.20;99.50
23591;DHT22;11973;52.098;7.582;2022-12-04T03:22:20;1.20;99.50
23591;DHT22;11973;52.098;7.582;2022-12-04T03:24:54;1.20;99.50
23591;DHT22;11973;52.098;7.582;2022-12-04T03:30:05;1.20;99.60
23591;DHT22;11973;52.098;7.582;2022-12-04T03:43:38;1.20;99.60
23591;DHT22;11973;52.098;7.582;2022-12-04T03:46:40;1.20;99.60
23591;DHT22;11973;52.098;7.582;2022-12-04T03:51:59;1.20;99.60
23591;DHT22;11973;52.098;7.582;2022-12-04T03:54:32;1.10;99.60
23591;DHT22;11973;52.098;7.582;2022-12-04T03:57:16;1.20;99.60
23591;DHT22;11973;52.098;7.582;2022-12-04T04:02:24;1.20;99.70
23591;DHT22;11973;52.098;7.582;2022-12-04T04:04:54;1.20;99.90
23591;DHT22;11973;52.098;7.582;2022-12-04T04:07:29;1.10;99.60
23591;DHT22;11973;52.098;7.582;2022-12-04T04:10:01;1.20;99.70
23591;DHT22;11973;52.098;7.582;2022-12-04T04:12:31;1.10;99.70
23591;DHT22;11973;52.098;7.582;2022-12-04T04:15:02;1.20;99.70
23591;DHT22;11973;52.098;7.582;2022-12-04T04:17:48;1.10;99.70
23591;DHT22;11973;52.098;7.582;2022-12-04T04:20:37;1.10;99.70
23591;DHT22;11973;52.098;7.582;2022-12-04T04:23:24;1.20;99.70
23591;DHT22;11973;52.098;7.582;2022-12-04T04:26:11;1.10;99.70
23591;DHT22;11973;52.098;7.582;2022-12-04T04:28:40;1.20;99.90
23591;DHT22;11973;52.098;7.582;2022-12-04T04:33:47;1.10;99.70
23591;DHT22;11973;52.098;7.582;2022-12-04T04:36:22;1.10;99.80
23591;DHT22;11973;52.098;7.582;2022-12-04T04:38:58;1.10;99.80
23591;DHT22;11973;52.098;7.582;2022-12-04T04:41:34;1.10;99.80
23591;DHT22;11973;52.098;7.582;2022-12-04T04:44:28;1.10;99.80
23591;DHT22;11973;52.098;7.582;2022-12-04T04:46:59;1.10;99.80
23591;DHT22;11973;52.098;7.582;2022-12-04T04:49:29;1.10;99.80
23591;DHT22;11973;52.098;7.582;2022-12-04T04:51:56;1.10;99.80
23591;DHT22;11973;52.098;7.582;2022-12-04T04:54:24;1.10;99.90
23591;DHT22;11973;52.098;7.582;2022-12-04T04:56:50;1.10;99.90
23591;DHT22;11973;52.098;7.582;2022-12-04T04:59:16;1.10;99.90
23591;DHT22;11973;52.098;7.582;2022-12-04T05:01:44;1.10;99.90
23591;DHT22;11973;52.098;7.582;2022-12-04T05:04:10;1.10;99.90
23591;DHT22;11973;52.098;7.582;2022-12-04T05:06:36;1.10;99.90
23591;DHT22;11973;52.098;7.582;2022-12-04T05:09:02;1.10;99.90
23591;DHT22;11973;52.098;7.582;2022-12-04T05:11:28;1.10;99.90
23591;DHT22;11973;52.098;7.582;2022-12-04T05:13:54;1.10;99.90
23591;DHT22;11973;52.098;7.582;2022-12-04T06:15:38;1.20;99.90
23591;DHT22;11973;52.098;7.582;2022-12-04T06:18:04;1.20;99.90
23591;DHT22;11973;52.098;7.582;2022-12-04T06:20:30;1.20;99.90
23591;DHT22;11973;52.098;7.582;2022-12-04T06:22:56;1.20;99.90
23591;DHT22;11973;52.098;7.582;2022-12-04T06:25:21;1.20;99.90
23591;DHT22;11973;52.098;7.582;2022-12-04T06:27:47;1.20;99.90
23591;DHT22;11973;52.098;7.582;2022-12-04T06:30:13;1.20;99.90
23591;DHT22;11973;52.098;7.582;2022-12-04T06:32:38;1.20;99.90
23591;DHT22;11973;52.098;7.582;2022-12-04T06:35:04;1.20;99.90
23591;DHT22;11973;52.098;7.582;2022-12-04T06:37:32;1.20;99.90
23591;DHT22;11973;52.098;7.582;2022-12-04T06:39:58;1.20;99.90
23591;DHT22;11973;52.098;7.582;2022-12-04T06:42:24;1.20;99.90
23591;DHT22;11973;52.098;7.582;2022-12-04T06:44:49;1.20;99.90
23591;DHT22;11973;52.098;7.582;2022-12-04T06:47:15;1.20;99.90
23591;DHT22;11973;52.098;7.582;2022-12-04T06:49:41;1.20;99.90
23591;DHT22;11973;52.098;7.582;2022-12-04T06:52:06;1.20;99.90
23591;DHT22;11973;52.098;7.582;2022-12-04T06:54:32;1.20;99.90
23591;DHT22;11973;52.098;7.582;2022-12-04T06:56:58;1.20;99.90
23591;DHT22;11973;52.098;7.582;2022-12-04T06:59:23;1.20;99.90
23591;DHT22;11973;52.098;7.582;2022-12-04T07:01:49;1.20;99.90
23591;DHT22;11973;52.098;7.582;2022-12-04T07:04:15;1.20;99.90
23591;DHT22;11973;52.098;7.582;2022-12-04T07:06:41;1.30;99.90
23591;DHT22;11973;52.098;7.582;2022-12-04T07:09:13;1.30;99.90
23591;DHT22;11973;52.098;7.582;2022-12-04T07:11:39;1.30;99.90
23591;DHT22;11973;52.098;7.582;2022-12-04T07:14:05;1.30;99.90
23591;DHT22;11973;52.098;7.582;2022-12-04T07:16:31;1.20;99.90
23591;DHT22;11973;52.098;7.582;2022-12-04T07:18:57;1.30;99.90
23591;DHT22;11973;52.098;7.582;2022-12-04T07:21:26;1.30;99.90
23591;DHT22;11973;52.098;7.582;2022-12-04T07:23:54;1.30;99.90
23591;DHT22;11973;52.098;7.582;2022-12-04T07:26:21;1.30;99.90
23591;DHT22;11973;52.098;7.582;2022-12-04T07:28:47;1.30;99.90
23591;DHT22;11973;52.098;7.582;2022-12-04T07:31:16;1.30;99.90
23591;DHT22;11973;52.098;7.582;2022-12-04T07:33:43;1.30;99.90
23591;DHT22;11973;52.098;7.582;2022-12-04T07:36:11;1.30;99.90
23591;DHT22;11973;52.098;7.582;2022-12-04T07:38:37;1.30;99.90
23591;DHT22;11973;52.098;7.582;2022-12-04T07:41:04;1.30;99.90
23591;DHT22;11973;52.098;7.582;2022-12-04T07:43:31;1.30;99.90
23591;DHT22;11973;52.098;7.582;2022-12-04T07:45:58;1.30;99.90
23591;DHT22;11973;52.098;7.582;2022-12-04T07:48:27;1.30;99.90
23591;DHT22;11973;52.098;7.582;2022-12-04T07:51:15;1.40;99.90
23591;DHT22;11973;52.098;7.582;2022-12-04T07:53:42;1.30;99.90
23591;DHT22;11973;52.098;7.582;2022-12-04T07:56:09;1.40;99.90
23591;DHT22;11973;52.098;7.582;2022-12-04T07:58:35;1.40;99.90
23591;DHT22;11973;52.098;7.582;2022-12-04T08:01:09;1.40;99.90
23591;DHT22;11973;52.098;7.582;2022-12-04T08:03:36;1.40;99.90
23591;DHT22;11973;52.098;7.582;2022-12-04T08:06:03;1.40;99.90
23591;DHT22;11973;52.098;7.582;2022-12-04T08:08:29;1.40;99.90
23591;DHT22;11973;52.098;7.582;2022-12-04T08:10:55;1.50;99.90
23591;DHT22;11973;52.098;7.582;2022-12-04T08:13:21;1.40;99.90
23591;DHT22;11973;52.098;7.582;2022-12-04T08:15:47;1.50;99.90
23591;DHT22;11973;52.098;7.582;2022-12-04T08:18:12;1.50;99.90
23591;DHT22;11973;52.098;7.582;2022-12-04T08:20:38;1.50;99.90
23591;DHT22;11973;52.098;7.582;2022-12-04T08:23:04;1.50;99.90
23591;DHT22;11973;52.098;7.582;2022-12-04T08:25:30;1.50;99.90
23591;DHT22;11973;52.098;7.582;2022-12-04T08:27:55;1.50;99.90
23591;DHT22;11973;52.098;7.582;2022-12-04T08:30:21;1.60;99.90
23591;DHT22;11973;52.098;7.582;2022-12-04T08:32:47;1.60;99.90
23591;DHT22;11973;52.098;7.582;2022-12-04T08:35:13;1.60;99.90
23591;DHT22;11973;52.098;7.582;2022-12-04T08:37:39;1.60;99.90
23591;DHT22;11973;52.098;7.582;2022-12-04T08:40:05;1.60;99.90
23591;DHT22;11973;52.098;7.582;2022-12-04T08:42:31;1.60;99.90
23591;DHT22;11973;52.098;7.582;2022-12-04T08:44:57;1.80;99.90
23591;DHT22;11973;52.098;7.582;2022-12-04T08:47:25;1.60;99.90
23591;DHT22;11973;52.098;7.582;2022-12-04T08:49:50;1.70;99.90
23591;DHT22;11973;52.098;7.582;2022-12-04T08:52:16;1.70;99.90
23591;DHT22;11973;52.098;7.582;2022-12-04T08:54:42;1.70;99.90
23591;DHT22;11973;52.098;7.582;2022-12-04T08:57:07;1.70;99.90
23591;DHT22;11973;52.098;7.582;2022-12-04T08:59:33;1.70;99.90
23591;DHT22;11973;52.098;7.582;2022-12-04T09:01:59;1.70;99.90
23591;DHT22;11973;52.098;7.582;2022-12-04T09:04:25;1.80;99.90
23591;DHT22;11973;52.098;7.582;2022-12-04T09:06:51;1.80;99.90
23591;DHT22;11973;52.098;7.582;2022-12-04T09:09:16;1.80;99.90
23591;DHT22;11973;52.098;7.582;2022-12-04T09:11:44;1.80;99.90
23591;DHT22;11973;52.098;7.582;2022-12-04T09:14:11;1.90;99.90
23591;DHT22;11973;52.098;7.582;2022-12-04T09:16:37;1.90;99.90
23591;DHT22;11973;52.098;7.582;2022-12-04T09:19:03;1.90;99.90
23591;DHT22;11973;52.098;7.582;2022-12-04T09:21:29;1.90;99.90
23591;DHT22;11973;52.098;7.582;2022-12-04T09:23:55;1.90;99.90
23591;DHT22;11973;52.098;7.582;2022-12-04T09:26:26;1.90;99.90
23591;DHT22;11973;52.098;7.582;2022-12-04T09:28:53;1.90;99.90
23591;DHT22;11973;52.098;7.582;2022-12-04T09:31:20;2.00;99.90
23591;DHT22;11973;52.098;7.582;2022-12-04T09:33:47;1.90;99.90
23591;DHT22;11973;52.098;7.582;2022-12-04T09:36:12;2.00;99.90
23591;DHT22;11973;52.098;7.582;2022-12-04T09:38:44;2.00;99.90
23591;DHT22;11973;52.098;7.582;2022-12-04T09:41:36;2.00;99.90
23591;DHT22;11973;52.098;7.582;2022-12-04T09:49:11;2.00;99.90
23591;DHT22;11973;52.098;7.582;2022-12-04T09:51:39;2.00;99.90
23591;DHT22;11973;52.098;7.582;2022-12-04T09:54:14;2.10;99.90
23591;DHT22;11973;52.098;7.582;2022-12-04T09:56:44;2.10;99.90
23591;DHT22;11973;52.098;7.582;2022-12-04T09:59:22;2.10;99.90
23591;DHT22;11973;52.098;7.582;2022-12-04T10:02:02;2.10;99.90
23591;DHT22;11973;52.098;7.582;2022-12-04T10:04:38;2.10;99.90
23591;DHT22;11973;52.098;7.582;2022-12-04T10:07:11;2.10;99.90
23591;DHT22;11973;52.098;7.582;2022-12-04T10:10:37;2.10;99.90
23591;DHT22;11973;52.098;7.582;2022-12-04T10:21:41;2.20;99.90
23591;DHT22;11973;52.098;7.582;2022-12-04T10:24:21;2.20;99.90
23591;DHT22;11973;52.098;7.582;2022-12-04T10:26:49;2.20;99.90
23591;DHT22;11973;52.098;7.582;2022-12-04T10:29:22;2.30;99.90
23591;DHT22;11973;52.098;7.582;2022-12-04T10:31:52;2.20;99.90
23591;DHT22;11973;52.098;7.582;2022-12-04T10:34:22;2.10;99.90
23591;DHT22;11973;52.098;7.582;2022-12-04T10:36:52;2.30;99.90
23591;DHT22;11973;52.098;7.582;2022-12-04T10:39:29;2.30;99.90
23591;DHT22;11973;52.098;7.582;2022-12-04T10:42:09;2.30;99.90
23591;DHT22;11973;52.098;7.582;2022-12-04T10:44:36;2.30;99.90
23591;DHT22;11973;52.098;7.582;2022-12-04T10:47:02;2.30;99.90
23591;DHT22;11973;52.098;7.582;2022-12-04T10:49:34;2.40;99.90
23591;DHT22;11973;52.098;7.582;2022-12-04T10:52:01;2.40;99.90
23591;DHT22;11973;52.098;7.582;2022-12-04T10:57:01;2.40;99.90
23591;DHT22;11973;52.098;7.582;2022-12-04T10:59:28;2.40;99.90
23591;DHT22;11973;52.098;7.582;2022-12-04T11:02:01;2.40;99.90
23591;DHT22;11973;52.098;7.582;2022-12-04T11:04:30;2.40;99.90
23591;DHT22;11973;52.098;7.582;2022-12-04T11:09:28;2.50;99.90
23591;DHT22;11973;52.098;7.582;2022-12-04T11:12:06;2.10;99.90
23591;DHT22;11973;52.098;7.582;2022-12-04T11:14:32;2.50;99.90
23591;DHT22;11973;52.098;7.582;2022-12-04T11:17:04;2.50;99.90
23591;DHT22;11973;52.098;7.582;2022-12-04T11:19:33;2.50;99.90
23591;DHT22;11973;52.098;7.582;2022-12-04T11:22:18;2.50;99.90
23591;DHT22;11973;52.098;7.582;2022-12-04T11:24:55;2.50;99.90
23591;DHT22;11973;52.098;7.582;2022-12-04T11:27:36;2.50;99.90
23591;DHT22;11973;52.098;7.582;2022-12-04T11:30:30;2.50;99.90
23591;DHT22;11973;52.098;7.582;2022-12-04T11:32:56;2.50;99.90
23591;DHT22;11973;52.098;7.582;2022-12-04T11:35:26;2.50;99.90
23591;DHT22;11973;52.098;7.582;2022-12-04T11:38:13;2.60;99.90
23591;DHT22;11973;52.098;7.582;2022-12-04T11:40:47;2.60;99.90
23591;DHT22;11973;52.098;7.582;2022-12-04T11:43:16;2.60;99.90
23591;DHT22;11973;52.098;7.582;2022-12-04T11:45:53;2.80;99.90
23591;DHT22;11973;52.098;7.582;2022-12-04T11:48:19;2.60;99.90
23591;DHT22;11973;52.098;7.582;2022-12-04T11:51:12;2.60;99.90
23591;DHT22;11973;52.098;7.582;2022-12-04T11:53:48;2.60;99.90
23591;DHT22;11973;52.098;7.582;2022-12-04T12:01:46;2.60;99.90
23591;DHT22;11973;52.098;7.582;2022-12-04T12:12:21;2.70;99.90
23591;DHT22;11973;52.098;7.582;2022-12-04T12:20:37;2.70;99.90
23591;DHT22;11973;52.098;7.582;2022-12-04T12:34:26;2.70;99.90
23591;DHT22;11973;52.098;7.582;2022-12-04T12:36:55;2.70;99.90
23591;DHT22;11973;52.098;7.582;2022-12-04T12:39:39;2.70;99.90
23591;DHT22;11973;52.098;7.582;2022-12-04T12:42:14;2.70;99.90
23591;DHT22;11973;52.098;7.582;2022-12-04T12:45:06;2.70;99.90
23591;DHT22;11973;52.098;7.582;2022-12-04T12:47:41;2.70;99.90
23591;DHT22;11973;52.098;7.582;2022-12-04T12:50:20;2.70;99.90
23591;DHT22;11973;52.098;7.582;2022-12-04T12:53:00;2.70;99.90
23591;DHT22;11973;52.098;7.582;2022-12-04T12:55:36;2.70;99.90
23591;DHT22;11973;52.098;7.582;2022-12-04T12:58:12;2.70;99.90
23591;DHT22;11973;52.098;7.582;2022-12-04T13:00:45;2.70;99.90
23591;DHT22;11973;52.098;7.582;2022-12-04T13:05:58;2.70;99.90
23591;DHT22;11973;52.098;7.582;2022-12-04T13:09:13;2.70;99.90
23591;DHT22;11973;52.098;7.582;2022-12-04T13:11:21;2.60;99.90
23591;DHT22;11973;52.098;7.582;2022-12-04T13:13:51;2.60;99.90
23591;DHT22;11973;52.098;7.582;2022-12-04T13:16:24;2.60;99.90
23591;DHT22;11973;52.098;7.582;2022-12-04T13:27:45;2.60;99.90
23591;DHT22;11973;52.098;7.582;2022-12-04T13:30:21;2.60;99.90
23591;DHT22;11973;52.098;7.582;2022-12-04T13:41:57;2.60;99.90
23591;DHT22;11973;52.098;7.582;2022-12-04T13:44:25;2.60;99.90
23591;DHT22;11973;52.098;7.582;2022-12-04T13:47:02;2.60;99.90
23591;DHT22;11973;52.098;7.582;2022-12-04T13:49:37;2.60;99.90
23591;DHT22;11973;52.098;7.582;2022-12-04T13:52:24;2.60;99.90
23591;DHT22;11973;52.098;7.582;2022-12-04T13:55:00;2.60;99.90
23591;DHT22;11973;52.098;7.582;2022-12-04T13:57:26;2.60;99.90
23591;DHT22;11973;52.098;7.582;2022-12-04T14:00:06;2.70;99.90
23591;DHT22;11973;52.098;7.582;2022-12-04T14:02:43;2.60;99.90
23591;DHT22;11973;52.098;7.582;2022-12-04T14:05:13;2.50;99.90
23591;DHT22;11973;52.098;7.582;2022-12-04T14:07:42;2.50;99.90
23591;DHT22;11973;52.098;7.582;2022-12-04T14:12:41;2.50;99.90
23591;DHT22;11973;52.098;7.582;2022-12-04T14:15:21;2.50;99.90
23591;DHT22;11973;52.098;7.582;2022-12-04T14:20:32;2.50;99.90
23591;DHT22;11973;52.098;7.582;2022-12-04T14:25:44;2.50;99.90
23591;DHT22;11973;52.098;7.582;2022-12-04T14:31:08;2.50;99.90
23591;DHT22;11973;52.098;7.582;2022-12-04T14:33:43;2.50;99.90
23591;DHT22;11973;52.098;7.582;2022-12-04T14:36:40;2.50;99.90
23591;DHT22;11973;52.098;7.582;2022-12-04T14:42:11;2.50;99.90
23591;DHT22;11973;52.098;7.582;2022-12-04T14:44:37;2.40;99.90
23591;DHT22;11973;52.098;7.582;2022-12-04T14:52:45;2.40;99.90
23591;DHT22;11973;52.098;7.582;2022-12-04T14:55:20;2.40;99.90
23591;DHT22;11973;52.098;7.582;2022-12-04T14:58:02;2.40;99.90
23591;DHT22;11973;52.098;7.582;2022-12-04T15:00:51;2.40;99.90
23591;DHT22;11973;52.098;7.582;2022-12-04T15:03:17;2.40;99.90
23591;DHT22;11973;52.098;7.582;2022-12-04T15:05:44;2.40;99.90
23591;DHT22;11973;52.098;7.582;2022-12-04T15:08:11;2.40;99.90
23591;DHT22;11973;52.098;7.582;2022-12-04T15:10:39;2.40;99.90
23591;DHT22;11973;52.098;7.582;2022-12-04T15:13:33;2.40;99.90
23591;DHT22;11973;52.098;7.582;2022-12-04T15:18:40;2.30;99.90
23591;DHT22;11973;52.098;7.582;2022-12-04T15:21:08;2.40;99.90
23591;DHT22;11973;52.098;7.582;2022-12-04T15:23:37;2.50;99.90
23591;DHT22;11973;52.098;7.582;2022-12-04T15:26:13;2.30;99.90
23591;DHT22;11973;52.098;7.582;2022-12-04T15:31:22;2.30;99.90
23591;DHT22;11973;52.098;7.582;2022-12-04T15:33:51;2.30;99.90
23591;DHT22;11973;52.098;7.582;2022-12-04T15:39:15;2.30;99.90
23591;DHT22;11973;52.098;7.582;2022-12-04T15:41:42;2.30;99.90
23591;DHT22;11973;52.098;7.582;2022-12-04T15:44:27;2.40;99.90
23591;DHT22;11973;52.098;7.582;2022-12-04T15:46:54;2.20;99.90
23591;DHT22;11973;52.098;7.582;2022-12-04T15:49:27;2.30;99.90
23591;DHT22;11973;52.098;7.582;2022-12-04T15:52:21;2.20;99.90
23591;DHT22;11973;52.098;7.582;2022-12-04T15:55:11;2.20;99.90
23591;DHT22;11973;52.098;7.582;2022-12-04T15:57:43;2.20;99.90
23591;DHT22;11973;52.098;7.582;2022-12-04T16:00:38;2.20;99.90
23591;DHT22;11973;52.098;7.582;2022-12-04T16:03:19;2.20;99.90
23591;DHT22;11973;52.098;7.582;2022-12-04T16:06:00;2.20;99.90
23591;DHT22;11973;52.098;7.582;2022-12-04T16:08:38;2.20;99.90
23591;DHT22;11973;52.098;7.582;2022-12-04T16:13:43;2.20;99.90
23591;DHT22;11973;52.098;7.582;2022-12-04T16:16:20;2.20;99.90
23591;DHT22;11973;52.098;7.582;2022-12-04T16:18:46;2.20;99.90
23591;DHT22;11973;52.098;7.582;2022-12-04T16:21:18;2.20;99.90
23591;DHT22;11973;52.098;7.582;2022-12-04T16:23:44;2.20;99.90
23591;DHT22;11973;52.098;7.582;2022-12-04T16:26:12;2.20;99.90
23591;DHT22;11973;52.098;7.582;2022-12-04T16:28:38;2.20;99.90
23591;DHT22;11973;52.098;7.582;2022-12-04T16:31:04;2.10;99.90
23591;DHT22;11973;52.098;7.582;2022-12-04T16:33:29;2.10;99.90
23591;DHT22;11973;52.098;7.582;2022-12-04T16:35:55;2.10;99.90
23591;DHT22;11973;52.098;7.582;2022-12-04T16:38:21;2.10;99.90
23591;DHT22;11973;52.098;7.582;2022-12-04T16:40:47;2.10;99.90
23591;DHT22;11973;52.098;7.582;2022-12-04T16:43:15;2.10;99.90
23591;DHT22;11973;52.098;7.582;2022-12-04T16:45:48;2.10;99.90
23591;DHT22;11973;52.098;7.582;2022-12-04T16:48:15;2.10;99.90
23591;DHT22;11973;52.098;7.582;2022-12-04T16:50:41;2.10;99.90
23591;DHT22;11973;52.098;7.582;2022-12-04T16:53:08;2.20;99.90
23591;DHT22;11973;52.098;7.582;2022-12-04T16:55:37;2.30;99.90
23591;DHT22;11973;52.098;7.582;2022-12-04T16:58:03;2.20;99.90
23591;DHT22;11973;52.098;7.582;2022-12-04T17:00:29;2.20;99.90
23591;DHT22;11973;52.098;7.582;2022-12-04T17:02:55;2.20;99.90
23591;DHT22;11973;52.098;7.582;2022-12-04T17:05:25;2.10;99.90
23591;DHT22;11973;52.098;7.582;2022-12-04T17:07:51;2.10;99.90
23591;DHT22;11973;52.098;7.582;2022-12-04T17:10:18;2.10;99.90
23591;DHT22;11973;52.098;7.582;2022-12-04T17:12:45;2.30;99.90
23591;DHT22;11973;52.098;7.582;2022-12-04T17:15:11;2.20;99.90
23591;DHT22;11973;52.098;7.582;2022-12-04T17:17:38;2.20;99.90
23591;DHT22;11973;52.098;7.582;2022-12-04T17:20:11;2.20;99.90
23591;DHT22;11973;52.098;7.582;2022-12-04T17:22:37;2.20;99.90
23591;DHT22;11973;52.098;7.582;2022-12-04T17:25:03;2.20;99.90
23591;DHT22;11973;52.098;7.582;2022-12-04T17:27:28;2.20;99.90
23591;DHT22;11973;52.098;7.582;2022-12-04T17:29:55;2.20;99.90
23591;DHT22;11973;52.098;7.582;2022-12-04T17:32:21;2.20;99.90
23591;DHT22;11973;52.098;7.582;2022-12-04T17:34:47;2.20;99.90
23591;DHT22;11973;52.098;7.582;2022-12-04T17:37:12;2.20;99.90
23591;DHT22;11973;52.098;7.582;2022-12-04T17:39:38;2.20;99.90
23591;DHT22;11973;52.098;7.582;2022-12-04T17:42:04;2.20;99.90
23591;DHT22;11973;52.098;7.582;2022-12-04T17:44:29;2.20;99.90
23591;DHT22;11973;52.098;7.582;2022-12-04T17:46:55;2.20;99.90
23591;DHT22;11973;52.098;7.582;2022-12-04T17:49:21;2.20;99.90
23591;DHT22;11973;52.098;7.582;2022-12-04T17:51:46;2.20;99.90
23591;DHT22;11973;52.098;7.582;2022-12-04T17:54:12;2.20;99.90
23591;DHT22;11973;52.098;7.582;2022-12-04T17:56:38;2.20;99.90
23591;DHT22;11973;52.098;7.582;2022-12-04T17:59:03;2.20;99.90
23591;DHT22;11973;52.098;7.582;2022-12-04T18:01:30;2.30;99.90
23591;DHT22;11973;52.098;7.582;2022-12-04T18:04:03;2.30;99.90
23591;DHT22;11973;52.098;7.582;2022-12-04T18:06:34;2.30;99.90
23591;DHT22;11973;52.098;7.582;2022-12-04T18:09:02;2.30;99.90
23591;DHT22;11973;52.098;7.582;2022-12-04T18:11:29;2.30;99.90
23591;DHT22;11973;52.098;7.582;2022-12-04T18:13:58;2.30;99.90
23591;DHT22;11973;52.098;7.582;2022-12-04T18:16:25;2.30;99.90
23591;DHT22;11973;52.098;7.582;2022-12-04T18:18:55;2.30;99.90
23591;DHT22;11973;52.098;7.582;2022-12-04T18:21:21;2.30;99.90
23591;DHT22;11973;52.098;7.582;2022-12-04T18:23:47;2.30;99.90
23591;DHT22;11973;52.098;7.582;2022-12-04T18:26:16;2.30;99.90
23591;DHT22;11973;52.098;7.582;2022-12-04T18:28:42;2.30;99.90
23591;DHT22;11973;52.098;7.582;2022-12-04T18:31:09;2.30;99.90
23591;DHT22;11973;52.098;7.582;2022-12-04T18:33:37;2.30;99.90
23591;DHT22;11973;52.098;7.582;2022-12-04T18:36:04;2.30;99.90
23591;DHT22;11973;52.098;7.582;2022-12-04T18:38:30;2.30;99.90
23591;DHT22;11973;52.098;7.582;2022-12-04T18:41:07;2.40;99.90
23591;DHT22;11973;52.098;7.582;2022-12-04T18:43:35;2.30;99.90
23591;DHT22;11973;52.098;7.582;2022-12-04T18:46:04;2.40;99.90
23591;DHT22;11973;52.098;7.582;2022-12-04T18:48:31;2.40;99.90
23591;DHT22;11973;52.098;7.582;2022-12-04T18:50:57;2.40;99.90
23591;DHT22;11973;52.098;7.582;2022-12-04T18:53:23;2.40;99.90
23591;DHT22;11973;52.098;7.582;2022-12-04T18:55:52;2.40;99.90
23591;DHT22;11973;52.098;7.582;2022-12-04T18:58:19;2.40;99.90
23591;DHT22;11973;52.098;7.582;2022-12-04T19:00:46;2.40;99.90
23591;DHT22;11973;52.098;7.582;2022-12-04T19:03:11;2.40;99.90
23591;DHT22;11973;52.098;7.582;2022-12-04T19:05:37;2.40;99.90
23591;DHT22;11973;52.098;7.582;2022-12-04T19:08:11;2.40;99.90
23591;DHT22;11973;52.098;7.582;2022-12-04T19:10:37;2.40;99.90
23591;DHT22;11973;52.098;7.582;2022-12-04T19:13:02;2.40;99.90
23591;DHT22;11973;52.098;7.582;2022-12-04T19:15:28;2.40;99.90
23591;DHT22;11973;52.098;7.582;2022-12-04T19:17:54;2.40;99.90